createdAt,value
2022-10-28T00:02:19.709Z,10.25
2022-10-28T00:04:46.070Z,10.26
2022-10-28T00:07:12.420Z,10.19
2022-10-28T00:09:38.961Z,10.22
2022-10-28T00:12:05.520Z,10.25
2022-10-28T00:14:32.357Z,10.22
2022-10-28T00:16:58.683Z,10.21
2022-10-28T00:19:25.047Z,10.24
2022-10-28T00:21:51.371Z,10.23
2022-10-28T00:24:17.769Z,10.22
2022-10-28T00:26:44.275Z,10.12
2022-10-28T00:29:17.857Z,10.14
2022-10-28T00:31:44.875Z,10.04
2022-10-28T00:34:12.413Z,10.01
2022-10-28T00:36:39.829Z,9.98
2022-10-28T00:39:13.567Z,9.91
2022-10-28T00:41:41.392Z,9.98
2022-10-28T00:44:26.714Z,9.98
2022-10-28T00:46:55.772Z,9.90
2022-10-28T00:49:25.236Z,9.94
2022-10-28T00:51:53.911Z,9.88
2022-10-28T00:54:20.680Z,9.92
2022-10-28T00:56:49.501Z,9.95
2022-10-28T00:59:21.502Z,9.91
2022-10-28T01:01:47.989Z,9.91
2022-10-28T01:04:14.468Z,9.87
2022-10-28T01:06:41.576Z,9.89
2022-10-28T01:09:08.056Z,9.90
2022-10-28T01:11:51.524Z,9.93
2022-10-28T01:14:21.871Z,9.91
2022-10-28T01:17:00.119Z,9.91
2022-10-28T01:19:41.705Z,9.90
2022-10-28T01:22:26.310Z,9.86
2022-10-28T01:24:52.647Z,9.88
2022-10-28T01:27:37.418Z,9.86
2022-10-28T01:30:15.009Z,9.88
2022-10-28T01:32:48.669Z,9.88
2022-10-28T01:35:21.905Z,9.87
2022-10-28T01:38:08.344Z,9.91
2022-10-28T01:40:40.780Z,9.89
2022-10-28T01:43:17.126Z,9.88
2022-10-28T01:45:43.502Z,9.88
2022-10-28T01:48:12.439Z,9.83
2022-10-28T01:50:49.727Z,9.78
2022-10-28T01:53:22.491Z,9.78
2022-10-28T01:55:50.302Z,9.73
2022-10-28T01:58:19.110Z,9.77
2022-10-28T02:00:46.497Z,9.78
2022-10-28T02:03:12.976Z,9.78
2022-10-28T02:05:45.419Z,9.75
2022-10-28T02:08:26.396Z,9.64
2022-10-28T02:11:03.006Z,9.66
2022-10-28T02:13:35.441Z,9.65
2022-10-28T02:16:04.662Z,9.55
2022-10-28T02:18:31.010Z,9.60
2022-10-28T02:21:05.837Z,9.51
2022-10-28T02:23:34.940Z,9.58
2022-10-28T02:26:04.609Z,9.60
2022-10-28T02:28:33.695Z,9.36
2022-10-28T02:31:26.090Z,9.39
2022-10-28T02:33:55.699Z,9.47
2022-10-28T02:36:23.587Z,9.52
2022-10-28T02:38:52.683Z,9.41
2022-10-28T02:41:30.987Z,9.44
2022-10-28T02:44:00.747Z,9.33
2022-10-28T02:46:28.942Z,9.28
2022-10-28T02:48:59.277Z,9.26
2022-10-28T02:51:36.983Z,9.21
2022-10-28T02:54:09.432Z,9.29
2022-10-28T02:57:02.163Z,9.27
2022-10-28T02:59:28.784Z,9.18
2022-10-28T03:01:55.470Z,9.19
2022-10-28T03:04:21.885Z,9.22
2022-10-28T03:06:48.207Z,9.23
2022-10-28T03:09:14.794Z,9.26
2022-10-28T03:11:41.148Z,9.21
2022-10-28T03:14:10.680Z,9.31
2022-10-28T03:16:40.696Z,9.30
2022-10-28T03:21:38.380Z,9.37
2022-10-28T03:24:04.820Z,9.40
2022-10-28T03:26:31.135Z,9.40
2022-10-28T03:28:57.508Z,9.46
2022-10-28T03:31:23.852Z,9.52
2022-10-28T03:33:50.176Z,9.53
2022-10-28T03:36:16.545Z,9.55
2022-10-28T03:38:42.992Z,9.58
2022-10-28T03:41:09.418Z,9.49
2022-10-28T03:43:35.966Z,9.57
2022-10-28T03:46:02.337Z,9.54
2022-10-28T03:48:28.749Z,9.59
2022-10-28T03:50:55.436Z,9.62
2022-10-28T03:53:24.317Z,9.63
2022-10-28T03:55:54.701Z,9.61
2022-10-28T03:58:23.583Z,9.65
2022-10-28T04:00:50.803Z,9.61
2022-10-28T04:03:17.783Z,9.61
2022-10-28T04:05:45.623Z,9.63
2022-10-28T04:08:11.931Z,9.61
2022-10-28T04:10:42.571Z,9.65
2022-10-28T04:13:11.688Z,9.67
2022-10-28T04:15:38.140Z,9.68
2022-10-28T04:18:04.928Z,9.76
2022-10-28T04:20:31.903Z,9.71
2022-10-28T04:22:59.778Z,9.76
2022-10-28T04:25:27.327Z,9.76
2022-10-28T04:27:55.128Z,9.86
2022-10-28T04:30:22.052Z,9.77
2022-10-28T04:32:48.434Z,9.72
2022-10-28T04:35:14.739Z,9.70
2022-10-28T04:37:41.253Z,9.75
2022-10-28T04:40:08.206Z,9.71
2022-10-28T04:42:34.627Z,9.65
2022-10-28T04:45:01.059Z,9.66
2022-10-28T04:47:27.380Z,9.78
2022-10-28T04:49:53.715Z,9.67
2022-10-28T04:52:20.085Z,9.74
2022-10-28T04:54:46.403Z,9.67
2022-10-28T04:57:12.710Z,9.64
2022-10-28T04:59:39.101Z,9.71
2022-10-28T05:02:05.665Z,9.63
2022-10-28T05:04:32.051Z,9.61
2022-10-28T05:06:58.466Z,9.61
2022-10-28T05:09:24.852Z,9.57
2022-10-28T05:11:51.173Z,9.63
2022-10-28T05:14:17.555Z,9.62
2022-10-28T05:16:43.885Z,9.64
2022-10-28T05:19:11.255Z,9.68
2022-10-28T05:21:37.571Z,9.70
2022-10-28T05:24:04.036Z,9.71
2022-10-28T05:26:30.499Z,9.70
2022-10-28T05:28:56.860Z,9.73
2022-10-28T05:31:23.220Z,9.71
2022-10-28T05:33:49.614Z,9.86
2022-10-28T05:36:15.961Z,9.64
2022-10-28T05:38:45.382Z,9.80
2022-10-28T05:41:12.180Z,9.64
2022-10-28T05:43:38.497Z,9.63
2022-10-28T05:46:05.012Z,9.60
2022-10-28T05:48:31.478Z,9.64
2022-10-28T05:50:57.792Z,9.63
2022-10-28T05:53:24.162Z,9.69
2022-10-28T05:55:50.469Z,9.71
2022-10-28T05:58:16.875Z,9.74
2022-10-28T06:00:43.351Z,9.84
2022-10-28T06:03:12.175Z,9.89
2022-10-28T06:05:43.282Z,10.00
2022-10-28T06:08:10.471Z,10.06
2022-10-28T06:10:36.887Z,10.08
2022-10-28T06:13:01.760Z,10.08
2022-10-28T06:15:28.124Z,10.15
2022-10-28T06:17:54.453Z,10.16
2022-10-28T06:20:20.857Z,10.19
2022-10-28T06:22:48.088Z,10.29
2022-10-28T06:25:14.540Z,10.37
2022-10-28T06:27:41.067Z,10.48
2022-10-28T06:30:07.712Z,10.65
2022-10-28T06:32:34.040Z,10.87
2022-10-28T06:35:00.419Z,11.14
2022-10-28T06:37:26.894Z,11.23
2022-10-28T06:39:53.288Z,11.53
2022-10-28T06:42:19.613Z,11.89
2022-10-28T06:44:46.041Z,12.02
2022-10-28T06:47:13.875Z,11.99
2022-10-28T06:49:40.333Z,12.22
2022-10-28T06:52:06.660Z,12.35
2022-10-28T06:54:33.052Z,12.42
2022-10-28T06:56:59.448Z,12.57
2022-10-28T06:59:25.895Z,12.65
2022-10-28T07:01:52.335Z,12.87
2022-10-28T07:04:18.708Z,13.15
2022-10-28T07:06:46.422Z,13.19
2022-10-28T07:09:15.155Z,13.09
2022-10-28T07:11:43.647Z,12.97
2022-10-28T07:14:10.746Z,12.85
2022-10-28T07:16:37.502Z,12.89
2022-10-28T07:19:03.921Z,12.78
2022-10-28T07:21:30.230Z,12.71
2022-10-28T07:23:56.814Z,12.72
2022-10-28T07:26:23.633Z,12.67
2022-10-28T07:28:50.071Z,12.56
2022-10-28T07:31:16.473Z,12.50
2022-10-28T07:33:43.208Z,12.53
2022-10-28T07:36:09.923Z,12.63
2022-10-28T07:38:36.306Z,12.64
2022-10-28T07:41:06.453Z,12.52
2022-10-28T07:43:35.200Z,12.43
2022-10-28T07:46:01.763Z,12.59
2022-10-28T07:48:28.205Z,12.67
2022-10-28T07:50:54.642Z,12.85
2022-10-28T07:53:22.677Z,12.79
2022-10-28T07:55:54.845Z,12.78
2022-10-28T07:58:21.278Z,12.84
2022-10-28T08:00:48.698Z,12.88
2022-10-28T08:03:15.079Z,12.99
2022-10-28T08:05:41.488Z,13.10
2022-10-28T08:08:07.804Z,13.23
2022-10-28T08:10:34.158Z,13.25
2022-10-28T08:13:01.055Z,13.23
2022-10-28T08:15:28.812Z,13.34
2022-10-28T08:17:56.812Z,13.72
2022-10-28T08:20:23.608Z,13.89
2022-10-28T08:22:50.096Z,13.85
2022-10-28T08:25:16.460Z,13.82
2022-10-28T08:27:44.861Z,13.68
2022-10-28T08:30:12.540Z,13.95
2022-10-28T08:32:39.071Z,14.10
2022-10-28T08:35:05.733Z,14.20
2022-10-28T08:37:32.200Z,14.12
2022-10-28T08:39:58.569Z,14.24
2022-10-28T08:42:27.962Z,14.07
2022-10-28T08:45:15.896Z,14.27
2022-10-28T08:47:52.023Z,14.31
2022-10-28T08:50:20.457Z,14.33
2022-10-28T08:52:46.939Z,14.35
2022-10-28T08:55:16.571Z,14.34
2022-10-28T08:57:42.906Z,14.43
2022-10-28T09:00:16.901Z,14.47
2022-10-28T09:02:50.898Z,14.62
2022-10-28T09:05:17.345Z,14.72
2022-10-28T09:07:43.725Z,15.31
2022-10-28T09:10:10.746Z,16.24
2022-10-28T09:13:13.409Z,16.80
2022-10-28T09:15:48.578Z,18.05
2022-10-28T09:18:19.558Z,17.55
2022-10-28T09:20:52.979Z,16.71
2022-10-28T09:23:23.650Z,17.34
2022-10-28T09:26:08.727Z,17.18
2022-10-28T09:28:50.205Z,16.66
2022-10-28T09:31:16.538Z,16.51
2022-10-28T09:33:47.786Z,16.42
2022-10-28T09:36:17.539Z,16.30
2022-10-28T09:38:44.294Z,16.56
2022-10-28T09:41:14.219Z,16.31
2022-10-28T09:43:48.089Z,16.39
2022-10-28T09:46:15.843Z,16.22
2022-10-28T09:48:45.198Z,16.52
2022-10-28T09:51:32.297Z,16.85
2022-10-28T09:54:00.339Z,16.84
2022-10-28T09:56:27.540Z,17.32
2022-10-28T09:58:54.915Z,17.46
2022-10-28T10:01:22.492Z,17.34
2022-10-28T10:03:49.985Z,17.40
2022-10-28T10:06:23.775Z,17.67
2022-10-28T10:08:50.100Z,17.74
2022-10-28T10:11:28.857Z,17.90
2022-10-28T10:13:57.198Z,17.85
2022-10-28T10:16:33.903Z,18.05
2022-10-28T10:19:01.982Z,18.72
2022-10-28T10:21:40.560Z,18.61
2022-10-28T10:24:27.215Z,18.58
2022-10-28T10:26:54.258Z,19.02
2022-10-28T10:29:21.829Z,19.27
2022-10-28T10:31:48.477Z,18.72
2022-10-28T10:34:23.405Z,18.90
2022-10-28T10:36:50.912Z,18.73
2022-10-28T10:39:26.778Z,19.19
2022-10-28T10:41:57.280Z,19.20
2022-10-28T10:44:31.661Z,19.24
2022-10-28T10:47:16.043Z,19.05
2022-10-28T10:49:42.393Z,19.05
2022-10-28T10:52:23.700Z,19.03
2022-10-28T10:54:59.790Z,19.18
2022-10-28T10:57:26.907Z,19.18
2022-10-28T10:59:54.166Z,19.26
2022-10-28T11:02:39.811Z,19.20
2022-10-28T11:05:07.268Z,19.19
2022-10-28T11:07:33.922Z,19.35
2022-10-28T11:10:01.203Z,19.31
2022-10-28T11:12:35.687Z,19.58
2022-10-28T11:15:06.238Z,19.33
2022-10-28T11:17:33.893Z,19.23
2022-10-28T11:20:01.220Z,19.45
2022-10-28T11:22:39.254Z,19.79
2022-10-28T11:25:24.202Z,19.67
2022-10-28T11:28:25.940Z,19.46
2022-10-28T11:31:19.337Z,19.63
2022-10-28T11:34:09.145Z,19.92
2022-10-28T11:36:45.870Z,19.66
2022-10-28T11:39:12.180Z,19.30
2022-10-28T11:41:50.696Z,19.56
2022-10-28T11:44:27.593Z,19.64
2022-10-28T11:47:04.069Z,19.63
2022-10-28T11:49:31.524Z,19.93
2022-10-28T11:52:00.878Z,19.84
2022-10-28T11:55:05.778Z,19.60
2022-10-28T11:57:46.212Z,19.65
2022-10-28T12:00:36.492Z,19.36
2022-10-28T12:03:18.321Z,19.27
2022-10-28T12:05:51.376Z,19.24
2022-10-28T12:08:26.797Z,19.33
2022-10-28T12:10:56.051Z,19.19
2022-10-28T12:13:41.340Z,18.95
2022-10-28T12:16:12.713Z,18.96
2022-10-28T12:18:50.667Z,19.13
2022-10-28T12:21:27.823Z,18.89
2022-10-28T12:23:56.205Z,19.10
2022-10-28T12:26:24.637Z,18.97
2022-10-28T12:28:57.220Z,18.78
2022-10-28T12:31:28.636Z,18.91
2022-10-28T12:33:57.116Z,18.81
2022-10-28T12:36:31.954Z,19.14
2022-10-28T12:39:12.535Z,19.22
2022-10-28T12:44:10.721Z,19.31
2022-10-28T12:46:57.144Z,19.37
2022-10-28T12:49:30.059Z,19.46
2022-10-28T12:51:59.451Z,19.50
2022-10-28T12:54:26.138Z,19.49
2022-10-28T12:57:01.538Z,19.42
2022-10-28T12:59:31.519Z,19.39
2022-10-28T13:02:01.345Z,19.21
2022-10-28T13:04:28.750Z,19.13
2022-10-28T13:07:16.958Z,19.63
2022-10-28T13:10:01.451Z,19.46
2022-10-28T13:12:35.662Z,19.39
2022-10-28T13:15:02.200Z,19.45
2022-10-28T13:17:44.212Z,19.34
2022-10-28T13:20:13.809Z,19.31
2022-10-28T13:23:00.774Z,19.24
2022-10-28T13:25:45.799Z,19.15
2022-10-28T13:28:16.306Z,18.95
2022-10-28T13:30:53.106Z,19.14
2022-10-28T13:33:22.772Z,19.20
2022-10-28T13:35:50.770Z,19.29
2022-10-28T13:38:20.283Z,19.31
2022-10-28T13:40:46.660Z,19.38
2022-10-28T13:43:20.521Z,19.41
2022-10-28T13:45:48.522Z,19.30
2022-10-28T13:48:30.359Z,19.21
2022-10-28T13:51:09.071Z,19.19
2022-10-28T13:53:47.524Z,19.19
2022-10-28T13:56:19.821Z,19.19
2022-10-28T13:59:06.449Z,19.24
2022-10-28T14:01:41.939Z,19.19
2022-10-28T14:04:21.511Z,19.10
2022-10-28T14:06:50.266Z,18.99
2022-10-28T14:09:21.264Z,19.06
2022-10-28T14:11:47.649Z,19.02
2022-10-28T14:14:16.971Z,19.03
2022-10-28T14:16:44.263Z,19.00
2022-10-28T14:19:10.576Z,18.93
2022-10-28T14:21:50.236Z,18.85
2022-10-28T14:24:37.617Z,18.79
2022-10-28T14:27:03.922Z,18.80
2022-10-28T14:29:30.337Z,18.81
2022-10-28T14:31:56.715Z,18.83
2022-10-28T14:34:23.002Z,18.75
2022-10-28T14:37:01.622Z,18.75
2022-10-28T14:39:46.401Z,18.75
2022-10-28T14:42:27.123Z,18.67
2022-10-28T14:45:05.685Z,18.61
2022-10-28T14:47:50.903Z,18.63
2022-10-28T14:50:21.028Z,18.71
2022-10-28T14:52:49.369Z,18.64
2022-10-28T14:55:26.559Z,18.52
2022-10-28T14:57:53.375Z,18.49
2022-10-28T15:00:21.414Z,18.41
2022-10-28T15:02:48.195Z,18.38
2022-10-28T15:05:17.098Z,18.31
2022-10-28T15:07:43.757Z,18.23
2022-10-28T15:10:19.703Z,18.19
2022-10-28T15:12:51.819Z,18.14
2022-10-28T15:15:19.914Z,18.05
2022-10-28T15:17:47.459Z,18.01
2022-10-28T15:20:19.670Z,18.01
2022-10-28T15:22:46.320Z,17.80
2022-10-28T15:25:13.739Z,17.77
2022-10-28T15:27:42.986Z,17.77
2022-10-28T15:30:17.104Z,17.77
2022-10-28T15:32:43.545Z,17.78
2022-10-28T15:35:26.846Z,17.75
2022-10-28T15:37:54.263Z,17.96
2022-10-28T15:40:23.503Z,17.82
2022-10-28T15:43:03.384Z,17.70
2022-10-28T15:45:38.284Z,17.65
2022-10-28T15:48:12.467Z,17.54
2022-10-28T15:50:38.913Z,17.51
2022-10-28T15:53:11.137Z,17.37
2022-10-28T15:56:06.661Z,17.25
2022-10-28T15:58:34.210Z,17.00
2022-10-28T16:01:00.885Z,16.82
2022-10-28T16:03:39.569Z,16.61
2022-10-28T16:06:07.291Z,16.55
2022-10-28T16:08:34.744Z,16.43
2022-10-28T16:11:03.154Z,16.44
2022-10-28T16:13:42.175Z,16.49
2022-10-28T16:16:13.020Z,16.26
2022-10-28T16:18:44.082Z,15.98
2022-10-28T16:21:16.905Z,16.03
2022-10-28T16:23:43.527Z,15.95
2022-10-28T16:26:12.404Z,16.09
2022-10-28T16:28:41.387Z,16.13
2022-10-28T16:31:14.347Z,15.84
2022-10-28T16:33:41.911Z,15.70
2022-10-28T16:36:08.400Z,15.80
2022-10-28T16:38:35.041Z,15.72
2022-10-28T16:41:04.756Z,15.60
2022-10-28T16:43:31.631Z,15.71
2022-10-28T16:46:01.082Z,15.72
2022-10-28T16:48:28.859Z,15.70
2022-10-28T16:50:57.046Z,15.82
2022-10-28T16:53:31.685Z,15.71
2022-10-28T16:56:01.081Z,15.63
2022-10-28T16:58:34.740Z,15.68
2022-10-28T17:01:02.218Z,15.52
2022-10-28T17:03:28.658Z,15.48
2022-10-28T17:06:01.990Z,15.42
2022-10-28T17:08:56.604Z,15.52
2022-10-28T17:11:16.240Z,15.48
2022-10-28T17:13:42.636Z,15.53
2022-10-28T17:16:08.995Z,15.58
2022-10-28T17:18:35.427Z,15.59
2022-10-28T17:21:02.882Z,15.65
2022-10-28T17:23:31.265Z,15.68
2022-10-28T17:26:02.266Z,15.70
2022-10-28T17:28:29.682Z,15.84
2022-10-28T17:31:05.850Z,15.83
2022-10-28T17:33:32.860Z,15.84
2022-10-28T17:36:03.479Z,15.95
2022-10-28T17:38:30.113Z,15.96
2022-10-28T17:40:57.234Z,15.94
2022-10-28T17:43:23.752Z,16.12
2022-10-28T17:45:50.522Z,16.05
2022-10-28T17:48:17.108Z,16.05
2022-10-28T17:50:44.225Z,16.03
2022-10-28T17:53:11.086Z,16.04
2022-10-28T17:55:37.725Z,16.13
2022-10-28T17:58:04.096Z,16.08
2022-10-28T18:00:31.189Z,16.45
2022-10-28T18:02:57.786Z,16.24
2022-10-28T18:05:25.095Z,16.43
2022-10-28T18:07:55.980Z,16.46
2022-10-28T18:10:22.831Z,16.24
2022-10-28T18:12:52.504Z,16.48
2022-10-28T18:15:19.460Z,16.58
2022-10-28T18:17:49.020Z,16.34
2022-10-28T18:20:15.369Z,16.28
2022-10-28T18:22:41.850Z,16.27
2022-10-28T18:25:08.431Z,16.23
2022-10-28T18:27:35.958Z,16.16
2022-10-28T18:30:05.559Z,16.14
2022-10-28T18:32:32.370Z,16.33
2022-10-28T18:34:58.727Z,16.44
2022-10-28T18:37:27.578Z,16.54
2022-10-28T18:39:53.967Z,16.56
2022-10-28T18:42:21.955Z,16.38
2022-10-28T18:44:48.915Z,16.29
2022-10-28T18:47:21.225Z,16.23
2022-10-28T18:49:48.064Z,16.12
2022-10-28T18:52:14.704Z,16.06
2022-10-28T18:54:42.205Z,16.05
2022-10-28T18:57:08.556Z,15.93
2022-10-28T18:59:43.295Z,15.82
2022-10-28T19:02:19.059Z,15.77
2022-10-28T19:04:45.540Z,15.69
2022-10-28T19:07:11.908Z,15.69
2022-10-28T19:09:38.268Z,15.62
2022-10-28T19:12:07.511Z,15.64
2022-10-28T19:14:33.918Z,15.74
2022-10-28T19:17:00.893Z,15.46
2022-10-28T19:19:27.267Z,15.35
2022-10-28T19:21:55.725Z,15.37
2022-10-28T19:24:22.145Z,15.43
2022-10-28T19:26:54.479Z,15.26
2022-10-28T19:29:20.988Z,15.19
2022-10-28T19:31:47.777Z,15.11
2022-10-28T19:34:15.248Z,15.09
2022-10-28T19:36:42.870Z,15.11
2022-10-28T19:39:19.216Z,15.13
2022-10-28T19:41:56.771Z,15.15
2022-10-28T19:44:23.265Z,15.07
2022-10-28T19:46:54.768Z,15.04
2022-10-28T19:49:23.804Z,14.98
2022-10-28T19:51:52.615Z,14.88
2022-10-28T19:54:20.229Z,14.90
2022-10-28T19:56:50.833Z,14.88
2022-10-28T19:59:17.253Z,14.79
2022-10-28T20:01:51.539Z,14.78
2022-10-28T20:04:18.142Z,14.69
2022-10-28T20:06:44.508Z,14.83
2022-10-28T20:09:10.862Z,14.58
2022-10-28T20:11:38.177Z,14.70
2022-10-28T20:14:11.796Z,14.52
2022-10-28T20:16:39.377Z,14.42
2022-10-28T20:19:05.862Z,14.52
2022-10-28T20:21:33.789Z,14.70
2022-10-28T20:24:00.387Z,14.49
2022-10-28T20:26:27.804Z,14.50
2022-10-28T20:28:57.267Z,14.55
2022-10-28T20:31:27.169Z,14.59
2022-10-28T20:33:54.743Z,14.36
2022-10-28T20:36:27.286Z,14.47
2022-10-28T20:38:58.088Z,14.40
2022-10-28T20:41:25.237Z,14.49
2022-10-28T20:43:51.938Z,14.41
2022-10-28T20:46:20.219Z,14.53
2022-10-28T20:48:47.500Z,14.51
2022-10-28T20:51:13.900Z,14.54
2022-10-28T20:53:40.539Z,14.43
2022-10-28T20:56:07.148Z,14.50
2022-10-28T20:58:34.471Z,14.42
2022-10-28T21:01:05.847Z,14.38
2022-10-28T21:03:32.511Z,14.40
2022-10-28T21:05:59.210Z,14.57
2022-10-28T21:08:26.630Z,14.55
2022-10-28T21:10:52.982Z,14.47
2022-10-28T21:13:19.458Z,14.52
2022-10-28T21:15:45.887Z,14.72
2022-10-28T21:18:12.666Z,14.74
2022-10-28T21:20:39.631Z,14.63
2022-10-28T21:23:06.238Z,14.54
2022-10-28T21:25:32.751Z,14.51
2022-10-28T21:27:59.579Z,14.50
2022-10-28T21:30:26.860Z,14.53
2022-10-28T21:32:53.833Z,14.51
2022-10-28T21:35:20.434Z,14.51
2022-10-28T21:37:46.799Z,14.52
2022-10-28T21:40:13.455Z,14.61
2022-10-28T21:42:39.773Z,14.74
2022-10-28T21:45:07.618Z,14.64
2022-10-28T21:47:34.510Z,14.62
2022-10-28T21:50:00.817Z,14.58
2022-10-28T21:52:29.248Z,14.55
2022-10-28T21:54:55.557Z,14.59
2022-10-28T21:57:29.628Z,14.38
2022-10-28T21:59:56.657Z,14.31
2022-10-28T22:02:23.264Z,14.34
2022-10-28T22:04:49.740Z,14.29
2022-10-28T22:07:16.069Z,14.30
2022-10-28T22:09:42.377Z,14.24
2022-10-28T22:12:08.802Z,14.20
2022-10-28T22:14:35.240Z,14.18
2022-10-28T22:17:01.590Z,14.15
2022-10-28T22:19:27.942Z,14.13
2022-10-28T22:21:54.311Z,14.05
2022-10-28T22:24:20.624Z,13.90
2022-10-28T22:26:47.018Z,13.89
2022-10-28T22:29:13.349Z,13.85
2022-10-28T22:31:39.727Z,13.87
2022-10-28T22:34:07.202Z,13.74
2022-10-28T22:36:33.641Z,13.85
2022-10-28T22:38:59.968Z,13.66
2022-10-28T22:41:27.543Z,13.59
2022-10-28T22:43:55.191Z,13.62
2022-10-28T22:46:22.299Z,13.60
2022-10-28T22:48:48.731Z,13.58
2022-10-28T22:51:15.805Z,13.57
2022-10-28T22:53:43.203Z,13.50
2022-10-28T22:56:13.099Z,13.45
2022-10-28T22:58:39.457Z,13.37
2022-10-28T23:01:10.621Z,13.35
2022-10-28T23:03:41.580Z,13.30
2022-10-28T23:06:08.483Z,13.30
2022-10-28T23:08:34.933Z,13.30
2022-10-28T23:11:01.502Z,13.33
2022-10-28T23:13:29.990Z,13.31
2022-10-28T23:15:56.398Z,13.21
2022-10-28T23:18:26.318Z,13.23
2022-10-28T23:20:52.770Z,13.26
2022-10-28T23:23:19.238Z,13.20
2022-10-28T23:25:52.612Z,13.15
2022-10-28T23:28:18.949Z,13.12
2022-10-28T23:30:45.266Z,13.03
2022-10-28T23:33:11.736Z,13.01
2022-10-28T23:35:38.270Z,12.96
2022-10-28T23:38:05.374Z,13.03
2022-10-28T23:40:32.970Z,13.02
2022-10-28T23:42:59.311Z,12.97
2022-10-28T23:45:25.674Z,12.96
2022-10-28T23:47:52.113Z,12.96
2022-10-28T23:50:18.489Z,12.89
2022-10-28T23:52:44.810Z,12.94
2022-10-28T23:55:11.170Z,12.88
2022-10-28T23:57:37.556Z,12.94
